createdAt,value
2019-05-26T00:00:36.637Z,99686.04
2019-05-26T00:03:07.782Z,99686.06
2019-05-26T00:05:38.734Z,99681.31
2019-05-26T00:08:09.720Z,99685.09
2019-05-26T00:10:41.368Z,99688.48
2019-05-26T00:13:12.403Z,99690.52
2019-05-26T00:15:43.522Z,99697.31
2019-05-26T00:18:14.511Z,99700.21
2019-05-26T00:20:45.648Z,99697.13
2019-05-26T00:23:16.643Z,99694.42
2019-05-26T00:25:47.708Z,99691.23
2019-05-26T00:28:18.835Z,99687.48
2019-05-26T00:30:49.805Z,99694.09
2019-05-26T00:33:20.930Z,99690.36
2019-05-26T00:35:52.224Z,99686.99
2019-05-26T00:38:23.295Z,99693.78
2019-05-26T00:40:54.393Z,99696.15
2019-05-26T00:43:25.376Z,99698.50
2019-05-26T00:45:56.928Z,99700.73
2019-05-26T00:48:28.072Z,99703.39
2019-05-26T00:50:59.152Z,99696.66
2019-05-26T00:53:30.305Z,99702.56
2019-05-26T00:56:01.440Z,99699.01
2019-05-26T00:58:32.508Z,99698.01
2019-05-26T01:01:07.102Z,99691.70
2019-05-26T01:03:38.246Z,99688.66
2019-05-26T01:06:09.429Z,99699.70
2019-05-26T01:08:40.532Z,99691.06
2019-05-26T01:11:11.953Z,99699.03
2019-05-26T01:13:42.963Z,99691.92
2019-05-26T01:16:14.036Z,99694.31
2019-05-26T01:18:45.069Z,99707.70
2019-05-26T01:21:16.155Z,99701.29
2019-05-26T01:23:47.299Z,99703.64
2019-05-26T01:26:18.453Z,99703.14
2019-05-26T01:28:50.792Z,99710.61
2019-05-26T01:31:22.002Z,99700.94
2019-05-26T01:33:53.229Z,99700.46
2019-05-26T01:36:24.372Z,99702.66
2019-05-26T01:38:55.726Z,99704.49
2019-05-26T01:41:26.830Z,99706.36
2019-05-26T01:43:57.970Z,99708.73
2019-05-26T01:46:29.058Z,99711.78
2019-05-26T01:49:00.154Z,99712.97
2019-05-26T01:51:31.202Z,99718.72
2019-05-26T01:54:02.363Z,99715.66
2019-05-26T01:56:33.421Z,99718.70
2019-05-26T01:59:04.640Z,99727.36
2019-05-26T02:01:35.842Z,99716.83
2019-05-26T02:04:07.136Z,99718.69
2019-05-26T02:06:38.381Z,99723.41
2019-05-26T02:09:09.662Z,99721.02
2019-05-26T02:11:40.690Z,99733.22
2019-05-26T02:14:14.448Z,99732.69
2019-05-26T02:16:44.871Z,99736.74
2019-05-26T02:19:16.015Z,99728.56
2019-05-26T02:21:47.125Z,99734.92
2019-05-26T02:24:18.231Z,99728.76
2019-05-26T02:26:49.350Z,99742.80
2019-05-26T02:29:20.478Z,99737.20
2019-05-26T02:31:51.538Z,99738.73
2019-05-26T02:34:22.671Z,99744.20
2019-05-26T02:36:54.932Z,99752.05
2019-05-26T02:39:26.159Z,99750.77
2019-05-26T02:41:57.231Z,99751.48
2019-05-26T02:44:28.204Z,99751.08
2019-05-26T02:46:59.216Z,99754.27
2019-05-26T02:49:30.259Z,99754.00
2019-05-26T02:52:01.487Z,99758.09
2019-05-26T02:54:32.667Z,99757.75
2019-05-26T02:57:03.817Z,99764.14
2019-05-26T02:59:34.809Z,99761.17
2019-05-26T03:02:06.258Z,99765.32
2019-05-26T03:04:37.405Z,99757.89
2019-05-26T03:07:09.101Z,99752.17
2019-05-26T03:09:40.299Z,99755.93
2019-05-26T03:12:11.927Z,99755.75
2019-05-26T03:14:44.676Z,99751.31
2019-05-26T03:17:19.342Z,99755.31
2019-05-26T03:19:51.818Z,99766.30
2019-05-26T03:22:23.917Z,99756.48
2019-05-26T03:24:54.965Z,99757.84
2019-05-26T03:27:26.094Z,99762.42
2019-05-26T03:29:57.118Z,99759.96
2019-05-26T03:32:28.208Z,99760.80
2019-05-26T03:34:59.152Z,99766.53
2019-05-26T03:37:30.566Z,99768.25
2019-05-26T03:40:03.010Z,99778.06
2019-05-26T03:42:34.083Z,99780.82
2019-05-26T03:45:06.895Z,99782.77
2019-05-26T03:47:37.974Z,99785.89
2019-05-26T03:50:09.140Z,99788.03
2019-05-26T03:52:40.150Z,99788.41
2019-05-26T03:55:11.695Z,99789.77
2019-05-26T03:57:42.721Z,99796.69
2019-05-26T04:00:14.190Z,99802.15
2019-05-26T04:02:46.743Z,99801.48
2019-05-26T04:05:17.919Z,99805.90
2019-05-26T04:07:49.058Z,99811.50
2019-05-26T04:10:21.849Z,99811.29
2019-05-26T04:12:53.029Z,99815.02
2019-05-26T04:15:24.261Z,99810.65
2019-05-26T04:17:55.290Z,99816.95
2019-05-26T04:20:26.722Z,99828.58
2019-05-26T04:22:57.967Z,99824.55
2019-05-26T04:25:28.988Z,99828.66
2019-05-26T04:28:01.505Z,99823.50
2019-05-26T04:30:32.482Z,99831.77
2019-05-26T04:33:03.571Z,99832.39
2019-05-26T04:35:34.626Z,99830.63
2019-05-26T04:38:05.744Z,99824.25
2019-05-26T04:40:38.920Z,99826.75
2019-05-26T04:43:14.498Z,99833.73
2019-05-26T04:45:42.696Z,99828.98
2019-05-26T04:48:14.047Z,99833.59
2019-05-26T04:50:45.201Z,99837.80
2019-05-26T04:53:16.234Z,99829.14
2019-05-26T04:55:47.242Z,99830.94
2019-05-26T04:58:18.350Z,99835.19
2019-05-26T05:00:49.456Z,99835.08
2019-05-26T05:03:20.607Z,99844.95
2019-05-26T05:05:51.771Z,99841.11
2019-05-26T05:08:22.871Z,99839.61
2019-05-26T05:10:54.118Z,99839.58
2019-05-26T05:13:25.326Z,99836.78
2019-05-26T05:15:56.363Z,99838.63
2019-05-26T05:18:27.403Z,99836.50
2019-05-26T05:20:58.407Z,99831.94
2019-05-26T05:23:29.541Z,99827.84
2019-05-26T05:26:00.657Z,99837.30
2019-05-26T05:28:31.717Z,99835.41
2019-05-26T05:31:02.749Z,99831.28
2019-05-26T05:33:33.747Z,99828.66
2019-05-26T05:36:04.736Z,99832.59
2019-05-26T05:38:35.756Z,99828.09
2019-05-26T05:41:06.796Z,99829.20
2019-05-26T05:43:37.854Z,99824.15
2019-05-26T05:46:08.945Z,99832.97
2019-05-26T05:48:39.960Z,99827.76
2019-05-26T05:51:11.055Z,99834.83
2019-05-26T05:53:42.176Z,99827.47
2019-05-26T05:56:13.272Z,99823.84
2019-05-26T05:58:44.354Z,99827.75
2019-05-26T06:01:15.470Z,99831.53
2019-05-26T06:03:46.564Z,99827.33
2019-05-26T06:06:17.792Z,99828.63
2019-05-26T06:08:51.400Z,99827.79
2019-05-26T06:11:24.445Z,99824.26
2019-05-26T06:13:56.726Z,99841.34
2019-05-26T06:16:29.637Z,99832.55
2019-05-26T06:19:00.990Z,99837.59
2019-05-26T06:21:32.250Z,99843.34
2019-05-26T06:24:04.900Z,99851.95
2019-05-26T06:26:36.304Z,99847.56
2019-05-26T06:29:13.980Z,99853.44
2019-05-26T06:31:45.542Z,99846.04
2019-05-26T06:34:26.653Z,99856.80
2019-05-26T06:36:56.158Z,99846.64
2019-05-26T06:39:27.806Z,99849.78
2019-05-26T06:41:59.798Z,99853.31
2019-05-26T06:44:30.837Z,99857.97
2019-05-26T06:47:01.924Z,99860.80
2019-05-26T06:49:33.035Z,99857.91
2019-05-26T06:52:04.253Z,99856.36
2019-05-26T06:54:35.318Z,99869.11
2019-05-26T06:57:06.422Z,99862.61
2019-05-26T06:59:37.499Z,99859.91
2019-05-26T07:02:08.464Z,99859.28
2019-05-26T07:04:39.520Z,99855.57
2019-05-26T07:07:10.616Z,99857.94
2019-05-26T07:09:41.627Z,99855.05
2019-05-26T07:12:12.598Z,99862.14
2019-05-26T07:14:43.810Z,99862.25
2019-05-26T07:17:14.812Z,99868.25
2019-05-26T07:19:45.917Z,99862.78
2019-05-26T07:22:17.228Z,99868.95
2019-05-26T07:24:48.367Z,99873.72
2019-05-26T07:27:19.572Z,99888.88
2019-05-26T07:29:54.431Z,99878.86
2019-05-26T07:32:31.040Z,99888.61
2019-05-26T07:35:02.073Z,99888.73
2019-05-26T07:37:33.208Z,99889.36
2019-05-26T07:40:04.967Z,99885.98
2019-05-26T07:42:36.203Z,99893.30
2019-05-26T07:45:08.141Z,99894.34
2019-05-26T07:47:39.484Z,99892.72
2019-05-26T07:50:13.214Z,99896.13
2019-05-26T07:52:46.900Z,99896.69
2019-05-26T07:55:18.762Z,99903.69
2019-05-26T07:57:50.090Z,99904.53
2019-05-26T08:00:28.036Z,99909.13
2019-05-26T08:02:59.100Z,99906.16
2019-05-26T08:05:30.186Z,99897.34
2019-05-26T08:08:12.233Z,99901.56
2019-05-26T08:10:34.864Z,99909.50
2019-05-26T08:13:07.924Z,99906.28
2019-05-26T08:15:39.993Z,99899.96
2019-05-26T08:18:12.261Z,99900.63
2019-05-26T08:20:43.694Z,99890.58
2019-05-26T08:23:15.050Z,99906.75
2019-05-26T08:25:46.108Z,99898.30
2019-05-26T08:28:17.249Z,99897.62
2019-05-26T08:30:48.260Z,99897.38
2019-05-26T08:33:19.249Z,99895.60
2019-05-26T08:35:50.259Z,99889.07
2019-05-26T08:38:21.301Z,99898.30
2019-05-26T08:40:52.254Z,99898.41
2019-05-26T08:43:23.274Z,99894.41
2019-05-26T08:45:54.277Z,99899.61
2019-05-26T08:48:25.322Z,99898.58
2019-05-26T08:50:56.544Z,99890.61
2019-05-26T08:53:27.521Z,99901.55
2019-05-26T08:55:58.505Z,99902.45
2019-05-26T08:58:29.684Z,99907.59
2019-05-26T09:01:00.809Z,99907.58
2019-05-26T09:03:31.870Z,99907.28
2019-05-26T09:06:02.888Z,99904.28
2019-05-26T09:08:34.006Z,99900.52
2019-05-26T09:11:05.117Z,99911.67
2019-05-26T09:13:36.100Z,99899.30
2019-05-26T09:16:07.333Z,99897.56
2019-05-26T09:18:38.304Z,99896.05
2019-05-26T09:21:09.213Z,99902.89
2019-05-26T09:23:40.543Z,99906.09
2019-05-26T09:26:11.531Z,99908.75
2019-05-26T09:28:43.428Z,99907.54
2019-05-26T09:31:14.434Z,99903.98
2019-05-26T09:33:45.695Z,99902.15
2019-05-26T09:36:17.999Z,99897.88
2019-05-26T09:38:50.543Z,99898.67
2019-05-26T09:41:21.443Z,99916.30
2019-05-26T09:43:52.364Z,99913.14
2019-05-26T09:46:23.417Z,99916.45
2019-05-26T09:48:54.488Z,99912.06
2019-05-26T09:51:25.794Z,99923.28
2019-05-26T09:54:01.837Z,99916.69
2019-05-26T09:56:40.152Z,99923.36
2019-05-26T09:59:12.891Z,99920.23
2019-05-26T10:01:43.927Z,99931.48
2019-05-26T10:04:15.626Z,99934.08
2019-05-26T10:06:46.620Z,99932.31
2019-05-26T10:09:17.614Z,99934.39
2019-05-26T10:11:48.668Z,99925.65
2019-05-26T10:14:19.833Z,99921.77
2019-05-26T10:16:51.015Z,99916.73
2019-05-26T10:19:22.137Z,99915.56
2019-05-26T10:21:59.904Z,99905.50
2019-05-26T10:24:38.521Z,99910.72
2019-05-26T10:27:09.610Z,99914.01
2019-05-26T10:29:42.389Z,99919.66
2019-05-26T10:32:16.260Z,99920.47
2019-05-26T10:34:48.193Z,99911.55
2019-05-26T10:37:20.870Z,99922.92
2019-05-26T10:39:55.010Z,99927.64
2019-05-26T10:42:26.029Z,99934.61
2019-05-26T10:44:56.988Z,99940.80
2019-05-26T10:47:27.960Z,99943.07
2019-05-26T10:49:58.952Z,99939.24
2019-05-26T10:52:29.885Z,99943.89
2019-05-26T10:55:00.963Z,99948.30
2019-05-26T10:57:32.021Z,99945.06
2019-05-26T11:00:03.116Z,99938.73
2019-05-26T11:02:34.133Z,99935.05
2019-05-26T11:05:06.599Z,99936.68
2019-05-26T11:07:37.646Z,99930.80
2019-05-26T11:10:08.898Z,99934.58
2019-05-26T11:12:39.952Z,99926.41
2019-05-26T11:15:11.426Z,99921.41
2019-05-26T11:17:42.663Z,99935.32
2019-05-26T11:20:14.637Z,99926.49
2019-05-26T11:22:45.761Z,99933.83
2019-05-26T11:25:17.519Z,99944.21
2019-05-26T11:27:48.523Z,99943.22
2019-05-26T11:30:19.614Z,99945.02
2019-05-26T11:32:50.654Z,99952.02
2019-05-26T11:35:21.771Z,99955.80
2019-05-26T11:37:52.734Z,99951.42
2019-05-26T11:40:23.830Z,99950.86
2019-05-26T11:42:54.733Z,99958.98
2019-05-26T11:45:25.781Z,99954.39
2019-05-26T11:47:56.773Z,99958.13
2019-05-26T11:50:27.817Z,99964.44
2019-05-26T11:52:58.770Z,99969.41
2019-05-26T11:55:29.816Z,99970.02
2019-05-26T11:58:00.754Z,99954.32
2019-05-26T12:00:31.852Z,99952.87
2019-05-26T12:03:02.912Z,99959.97
2019-05-26T12:05:33.979Z,99956.59
2019-05-26T12:08:04.950Z,99964.26
2019-05-26T12:10:36.066Z,99972.61
2019-05-26T12:13:07.127Z,99975.58
2019-05-26T12:15:38.310Z,99977.99
2019-05-26T12:18:09.360Z,99962.16
2019-05-26T12:20:40.351Z,99967.17
2019-05-26T12:23:11.360Z,99958.42
2019-05-26T12:25:43.008Z,99959.50
2019-05-26T12:28:14.089Z,99957.47
2019-05-26T12:30:45.054Z,99963.58
2019-05-26T12:33:16.247Z,99964.36
2019-05-26T12:35:47.296Z,99964.95
2019-05-26T12:38:18.277Z,99953.27
2019-05-26T12:40:49.309Z,99953.17
2019-05-26T12:43:21.217Z,99951.89
2019-05-26T12:45:53.807Z,99937.10
2019-05-26T12:48:24.718Z,99948.04
2019-05-26T12:50:55.717Z,99944.86
2019-05-26T12:53:26.722Z,99945.88
2019-05-26T12:55:57.829Z,99942.05
2019-05-26T12:58:28.829Z,99947.98
2019-05-26T13:00:59.908Z,99968.53
2019-05-26T13:03:31.038Z,99964.92
2019-05-26T13:06:02.167Z,99977.09
2019-05-26T13:08:33.224Z,99989.54
2019-05-26T13:11:04.316Z,99993.82
2019-05-26T13:13:35.319Z,99986.50
2019-05-26T13:16:06.264Z,99985.33
2019-05-26T13:18:37.314Z,99993.58
2019-05-26T13:21:08.308Z,99999.38
2019-05-26T13:23:39.372Z,99990.36
2019-05-26T13:26:10.368Z,99989.19
2019-05-26T13:28:41.776Z,99993.57
2019-05-26T13:31:15.820Z,99985.14
2019-05-26T13:33:47.006Z,99998.36
2019-05-26T13:36:18.031Z,99990.11
2019-05-26T13:38:48.977Z,99987.13
2019-05-26T13:41:20.004Z,99986.08
2019-05-26T13:43:50.997Z,99978.42
2019-05-26T13:46:21.945Z,99983.15
2019-05-26T13:48:58.002Z,99996.89
2019-05-26T13:51:29.126Z,100002.55
2019-05-26T13:54:00.301Z,100007.73
2019-05-26T13:56:31.520Z,100019.05
2019-05-26T13:59:04.703Z,100019.23
2019-05-26T14:01:35.808Z,100025.25
2019-05-26T14:04:07.092Z,100027.25
2019-05-26T14:06:38.136Z,100051.05
2019-05-26T14:09:10.173Z,100079.02
2019-05-26T14:11:41.149Z,100079.77
2019-05-26T14:14:12.130Z,100077.23
2019-05-26T14:16:44.662Z,100080.17
2019-05-26T14:19:16.697Z,100062.05
2019-05-26T14:21:47.929Z,100075.07
2019-05-26T14:24:19.218Z,100074.38
2019-05-26T14:26:50.245Z,100082.48
2019-05-26T14:29:21.515Z,100097.02
2019-05-26T14:31:52.938Z,100093.39
2019-05-26T14:34:24.526Z,100103.69
2019-05-26T14:36:55.744Z,100100.90
2019-05-26T14:39:27.022Z,100110.48
2019-05-26T14:41:58.026Z,100115.11
2019-05-26T14:44:29.185Z,100119.09
2019-05-26T14:47:00.214Z,100120.27
2019-05-26T14:49:31.423Z,100123.33
2019-05-26T14:52:02.620Z,100118.16
2019-05-26T14:54:33.720Z,100124.40
2019-05-26T14:57:04.989Z,100130.11
2019-05-26T14:59:36.109Z,100123.23
2019-05-26T15:02:07.318Z,100121.40
2019-05-26T15:04:38.624Z,100119.66
2019-05-26T15:07:15.514Z,100113.59
2019-05-26T15:09:50.088Z,100112.64
2019-05-26T15:12:24.032Z,100107.28
2019-05-26T15:14:55.392Z,100109.52
2019-05-26T15:17:26.625Z,100113.53
2019-05-26T15:19:57.839Z,100115.52
2019-05-26T15:22:28.992Z,100120.91
2019-05-26T15:25:00.077Z,100121.02
2019-05-26T15:27:31.681Z,100118.70
2019-05-26T15:30:02.978Z,100120.77
2019-05-26T15:32:34.077Z,100121.38
2019-05-26T15:35:08.858Z,100125.98
2019-05-26T15:37:40.041Z,100139.16
2019-05-26T15:40:11.198Z,100138.42
2019-05-26T15:42:42.337Z,100139.69
2019-05-26T15:45:13.806Z,100132.55
2019-05-26T15:47:45.001Z,100137.55
2019-05-26T15:50:16.319Z,100149.36
2019-05-26T15:52:47.485Z,100156.56
2019-05-26T15:55:18.634Z,100154.78
2019-05-26T15:57:49.925Z,100155.97
2019-05-26T16:00:21.165Z,100155.19
2019-05-26T16:02:52.399Z,100160.44
2019-05-26T16:05:23.587Z,100162.56
2019-05-26T16:07:54.559Z,100161.69
2019-05-26T16:10:25.669Z,100171.39
2019-05-26T16:12:56.722Z,100176.63
2019-05-26T16:15:30.577Z,100182.30
2019-05-26T16:18:01.903Z,100186.50
2019-05-26T16:20:33.135Z,100197.25
2019-05-26T16:23:04.425Z,100204.72
2019-05-26T16:25:35.775Z,100213.13
2019-05-26T16:28:06.789Z,100209.53
2019-05-26T16:30:38.076Z,100207.00
2019-05-26T16:33:09.299Z,100203.77
2019-05-26T16:35:40.590Z,100203.83
2019-05-26T16:38:11.644Z,100208.09
2019-05-26T16:40:42.670Z,100211.91
2019-05-26T16:43:13.702Z,100213.11
2019-05-26T16:45:55.717Z,100212.94
2019-05-26T16:48:17.592Z,100211.70
2019-05-26T16:50:48.851Z,100208.23
2019-05-26T16:53:23.071Z,100209.75
2019-05-26T16:55:54.421Z,100209.87
2019-05-26T16:58:25.640Z,100208.96
2019-05-26T17:00:56.956Z,100216.25
2019-05-26T17:03:28.543Z,100210.52
2019-05-26T17:06:08.061Z,100213.53
2019-05-26T17:08:32.720Z,100214.70
2019-05-26T17:11:03.996Z,100218.02
2019-05-26T17:13:37.689Z,100217.94
2019-05-26T17:16:08.933Z,100222.79
2019-05-26T17:18:39.977Z,100222.52
2019-05-26T17:21:11.135Z,100228.00
2019-05-26T17:23:42.336Z,100236.92
2019-05-26T17:26:13.723Z,100236.22
2019-05-26T17:28:45.026Z,100253.16
2019-05-26T17:31:16.271Z,100249.42
2019-05-26T17:33:47.362Z,100254.45
2019-05-26T17:36:18.431Z,100251.84
2019-05-26T17:38:49.877Z,100253.20
2019-05-26T17:41:21.151Z,100262.70
2019-05-26T17:43:52.435Z,100259.67
2019-05-26T17:46:36.276Z,100260.91
2019-05-26T17:49:09.671Z,100264.00
2019-05-26T17:51:40.936Z,100272.37
2019-05-26T17:54:13.236Z,100268.14
2019-05-26T17:56:44.470Z,100274.30
2019-05-26T17:59:15.683Z,100281.34
2019-05-26T18:01:47.241Z,100285.60
2019-05-26T18:04:18.475Z,100289.58
2019-05-26T18:06:50.037Z,100289.70
2019-05-26T18:09:20.994Z,100292.48
2019-05-26T18:11:52.374Z,100298.50
2019-05-26T18:14:23.450Z,100300.27
2019-05-26T18:16:54.718Z,100305.45
2019-05-26T18:19:29.469Z,100306.85
2019-05-26T18:21:58.522Z,100322.06
2019-05-26T18:24:29.743Z,100307.38
2019-05-26T18:27:01.003Z,100315.92
2019-05-26T18:29:32.359Z,100315.95
2019-05-26T18:32:19.177Z,100316.52
2019-05-26T18:34:50.540Z,100311.77
2019-05-26T18:37:22.451Z,100316.55
2019-05-26T18:39:53.803Z,100321.84
2019-05-26T18:42:28.135Z,100322.36
2019-05-26T18:44:59.446Z,100319.98
2019-05-26T18:47:32.509Z,100329.35
2019-05-26T18:50:07.263Z,100324.41
2019-05-26T18:52:38.973Z,100323.05
2019-05-26T18:55:10.315Z,100327.66
2019-05-26T18:57:45.787Z,100329.91
2019-05-26T19:00:17.199Z,100328.05
2019-05-26T19:02:52.452Z,100326.74
2019-05-26T19:05:33.761Z,100335.48
2019-05-26T19:08:04.333Z,100336.55
2019-05-26T19:10:38.489Z,100332.17
2019-05-26T19:13:10.721Z,100338.17
2019-05-26T19:15:43.883Z,100341.63
2019-05-26T19:18:20.034Z,100350.88
2019-05-26T19:20:48.487Z,100347.47
2019-05-26T19:23:20.268Z,100347.68
2019-05-26T19:25:51.941Z,100360.11
2019-05-26T19:28:23.488Z,100359.28
2019-05-26T19:30:56.438Z,100358.27
2019-05-26T19:33:27.735Z,100360.80
2019-05-26T19:36:00.642Z,100365.58
2019-05-26T19:38:31.944Z,100367.09
2019-05-26T19:41:03.224Z,100366.42
2019-05-26T19:43:34.616Z,100372.04
2019-05-26T19:46:10.497Z,100375.63
2019-05-26T19:48:44.587Z,100377.52
2019-05-26T19:51:16.187Z,100373.30
2019-05-26T19:53:47.691Z,100378.55
2019-05-26T19:56:19.018Z,100387.77
2019-05-26T19:58:50.304Z,100387.59
2019-05-26T20:01:21.657Z,100395.27
2019-05-26T20:03:52.960Z,100391.53
2019-05-26T20:06:24.315Z,100395.41
2019-05-26T20:08:55.741Z,100403.91
2019-05-26T20:11:26.981Z,100402.08
2019-05-26T20:13:59.157Z,100405.50
2019-05-26T20:16:30.996Z,100413.18
2019-05-26T20:19:02.606Z,100413.56
2019-05-26T20:21:33.954Z,100411.51
2019-05-26T20:24:06.541Z,100414.42
2019-05-26T20:26:38.783Z,100422.42
2019-05-26T20:29:10.074Z,100431.44
2019-05-26T20:31:41.453Z,100430.44
2019-05-26T20:34:12.825Z,100436.55
2019-05-26T20:36:44.141Z,100437.06
2019-05-26T20:39:15.533Z,100432.45
2019-05-26T20:41:46.985Z,100437.70
2019-05-26T20:44:18.388Z,100440.94
2019-05-26T20:46:52.847Z,100432.94
2019-05-26T20:49:44.855Z,100436.84
2019-05-26T20:52:07.316Z,100432.75
2019-05-26T20:54:38.882Z,100435.48
2019-05-26T20:57:10.369Z,100443.98
2019-05-26T20:59:42.836Z,100437.88
2019-05-26T21:02:15.458Z,100440.59
2019-05-26T21:04:46.815Z,100440.75
2019-05-26T21:07:18.138Z,100439.91
2019-05-26T21:09:49.438Z,100446.72
2019-05-26T21:12:20.793Z,100442.31
2019-05-26T21:14:52.128Z,100444.71
2019-05-26T21:17:23.478Z,100447.96
2019-05-26T21:19:54.963Z,100442.84
2019-05-26T21:22:26.344Z,100454.94
2019-05-26T21:24:57.594Z,100450.37
2019-05-26T21:27:29.247Z,100449.86
2019-05-26T21:30:00.733Z,100450.02
2019-05-26T21:32:32.035Z,100453.95
2019-05-26T21:35:04.297Z,100445.45
2019-05-26T21:37:35.601Z,100452.41
2019-05-26T21:40:08.493Z,100450.91
2019-05-26T21:42:39.826Z,100455.99
2019-05-26T21:45:11.223Z,100457.03
2019-05-26T21:47:42.760Z,100461.30
2019-05-26T21:50:14.349Z,100458.39
2019-05-26T21:52:45.671Z,100461.11
2019-05-26T21:55:17.094Z,100461.81
2019-05-26T21:57:48.423Z,100466.75
2019-05-26T22:00:22.093Z,100472.53
2019-05-26T22:02:56.246Z,100465.20
2019-05-26T22:05:29.749Z,100471.86
2019-05-26T22:08:01.128Z,100475.09
2019-05-26T22:10:32.440Z,100473.89
2019-05-26T22:13:03.736Z,100477.31
2019-05-26T22:18:45.473Z,100475.25
2019-05-26T22:21:26.631Z,100484.27
2019-05-26T22:23:57.866Z,100483.94
2019-05-26T22:26:29.239Z,100483.42
2019-05-26T22:29:00.474Z,100485.48
2019-05-26T22:31:31.810Z,100480.37
2019-05-26T22:34:03.169Z,100486.66
2019-05-26T22:36:34.502Z,100490.05
2019-05-26T22:39:06.933Z,100491.93
2019-05-26T22:41:38.262Z,100487.84
2019-05-26T22:44:09.518Z,100487.84
2019-05-26T22:46:41.222Z,100493.81
2019-05-26T22:49:12.444Z,100489.57
2019-05-26T22:51:43.698Z,100491.42
2019-05-26T22:54:14.915Z,100492.30
2019-05-26T22:56:46.199Z,100487.33
2019-05-26T22:59:17.431Z,100487.00
2019-05-26T23:01:48.693Z,100492.78
2019-05-26T23:04:20.018Z,100486.84
2019-05-26T23:06:51.283Z,100495.69
2019-05-26T23:09:22.525Z,100500.10
2019-05-26T23:11:53.765Z,100500.10
2019-05-26T23:14:25.023Z,100493.80
2019-05-26T23:16:56.313Z,100496.20
2019-05-26T23:19:27.565Z,100489.90
2019-05-26T23:21:58.888Z,100492.11
2019-05-26T23:24:30.199Z,100493.98
2019-05-26T23:27:01.478Z,100496.34
2019-05-26T23:29:32.699Z,100497.23
2019-05-26T23:32:04.054Z,100498.23
2019-05-26T23:34:35.204Z,100498.23
2019-05-26T23:37:06.962Z,100498.08
2019-05-26T23:39:38.487Z,100499.95
2019-05-26T23:42:09.656Z,100498.92
2019-05-26T23:44:40.714Z,100498.59
2019-05-26T23:47:11.883Z,100495.87
2019-05-26T23:49:44.178Z,100503.20
2019-05-26T23:52:19.183Z,100513.58
2019-05-26T23:54:48.626Z,100517.16
2019-05-26T23:57:19.737Z,100511.70
2019-05-26T23:59:50.855Z,100514.23
